sensor_id;sensor_type;location;lat;lon;timestamp;temperature;humidity
73438;DHT22;66471;56.532;21.020;2023-07-29T07:20:48;25.10;63.10
73438;DHT22;66471;56.532;21.020;2023-07-29T07:23:17;25.30;61.70
73438;DHT22;66471;56.532;21.020;2023-07-29T07:25:45;25.70;61.80
73438;DHT22;66471;56.532;21.020;2023-07-29T07:28:12;26.40;56.90
73438;DHT22;66471;56.532;21.020;2023-07-29T07:30:41;26.10;59.40
73438;DHT22;66471;56.532;21.020;2023-07-29T07:33:08;26.00;58.10
73438;DHT22;66471;56.532;21.020;2023-07-29T07:39:21;26.00;56.80
73438;DHT22;66471;56.532;21.020;2023-07-29T07:41:49;26.40;54.90
73438;DHT22;66471;56.532;21.020;2023-07-29T07:44:16;26.30;57.60
73438;DHT22;66471;56.532;21.020;2023-07-29T07:46:45;26.80;54.70
73438;DHT22;66471;56.532;21.020;2023-07-29T07:49:14;26.80;55.00
73438;DHT22;66471;56.532;21.020;2023-07-29T07:51:41;26.40;55.80
73438;DHT22;66471;56.532;21.020;2023-07-29T07:54:10;26.20;58.30
73438;DHT22;66471;56.532;21.020;2023-07-29T07:56:37;26.30;55.20
73438;DHT22;66471;56.532;21.020;2023-07-29T07:59:04;26.60;53.60
73438;DHT22;66471;56.532;21.020;2023-07-29T08:01:36;27.00;54.00
73438;DHT22;66471;56.532;21.020;2023-07-29T08:04:03;27.40;52.00
73438;DHT22;66471;56.532;21.020;2023-07-29T08:06:32;27.80;50.30
73438;DHT22;66471;56.532;21.020;2023-07-29T08:08:59;28.00;50.00
73438;DHT22;66471;56.532;21.020;2023-07-29T08:11:26;27.80;48.90
73438;DHT22;66471;56.532;21.020;2023-07-29T08:13:53;27.70;49.50
73438;DHT22;66471;56.532;21.020;2023-07-29T08:16:21;27.50;50.70
73438;DHT22;66471;56.532;21.020;2023-07-29T08:18:48;27.90;50.00
73438;DHT22;66471;56.532;21.020;2023-07-29T08:21:16;27.20;52.40
73438;DHT22;66471;56.532;21.020;2023-07-29T08:23:43;27.20;50.90
73438;DHT22;66471;56.532;21.020;2023-07-29T08:26:10;28.10;50.30
73438;DHT22;66471;56.532;21.020;2023-07-29T08:28:38;28.20;48.60
73438;DHT22;66471;56.532;21.020;2023-07-29T08:31:06;28.70;47.70
73438;DHT22;66471;56.532;21.020;2023-07-29T08:33:34;28.90;46.90
73438;DHT22;66471;56.532;21.020;2023-07-29T08:36:02;28.30;48.50
73438;DHT22;66471;56.532;21.020;2023-07-29T08:38:30;28.40;47.40
73438;DHT22;66471;56.532;21.020;2023-07-29T08:41:16;28.30;48.20
73438;DHT22;66471;56.532;21.020;2023-07-29T08:43:55;28.90;47.70
73438;DHT22;66471;56.532;21.020;2023-07-29T08:46:24;29.20;46.60
73438;DHT22;66471;56.532;21.020;2023-07-29T08:48:51;28.90;47.20
73438;DHT22;66471;56.532;21.020;2023-07-29T08:51:21;28.70;47.70
73438;DHT22;66471;56.532;21.020;2023-07-29T08:53:50;29.10;46.10
73438;DHT22;66471;56.532;21.020;2023-07-29T08:56:18;29.30;46.30
73438;DHT22;66471;56.532;21.020;2023-07-29T08:58:46;28.90;47.50
73438;DHT22;66471;56.532;21.020;2023-07-29T09:01:17;29.10;48.50
73438;DHT22;66471;56.532;21.020;2023-07-29T09:03:44;29.30;46.20
73438;DHT22;66471;56.532;21.020;2023-07-29T09:06:12;28.90;46.70
73438;DHT22;66471;56.532;21.020;2023-07-29T09:08:43;29.00;47.40
73438;DHT22;66471;56.532;21.020;2023-07-29T09:11:13;29.30;46.20
73438;DHT22;66471;56.532;21.020;2023-07-29T09:13:41;29.00;46.90
73438;DHT22;66471;56.532;21.020;2023-07-29T09:16:09;29.40;46.30
73438;DHT22;66471;56.532;21.020;2023-07-29T09:18:36;29.10;46.30
73438;DHT22;66471;56.532;21.020;2023-07-29T09:21:03;29.40;45.00
73438;DHT22;66471;56.532;21.020;2023-07-29T09:23:41;29.70;45.00
73438;DHT22;66471;56.532;21.020;2023-07-29T09:26:10;30.20;43.50
73438;DHT22;66471;56.532;21.020;2023-07-29T09:28:40;29.40;44.70
73438;DHT22;66471;56.532;21.020;2023-07-29T09:31:19;29.10;45.20
73438;DHT22;66471;56.532;21.020;2023-07-29T09:33:47;29.40;45.10
73438;DHT22;66471;56.532;21.020;2023-07-29T09:36:17;29.60;43.50
73438;DHT22;66471;56.532;21.020;2023-07-29T09:38:45;30.30;42.00
73438;DHT22;66471;56.532;21.020;2023-07-29T09:41:15;30.50;41.70
73438;DHT22;66471;56.532;21.020;2023-07-29T09:43:42;30.30;39.70
73438;DHT22;66471;56.532;21.020;2023-07-29T09:46:09;30.50;39.80
73438;DHT22;66471;56.532;21.020;2023-07-29T09:48:38;30.00;40.90
73438;DHT22;66471;56.532;21.020;2023-07-29T09:51:12;30.20;42.00
73438;DHT22;66471;56.532;21.020;2023-07-29T09:53:47;29.70;42.00
73438;DHT22;66471;56.532;21.020;2023-07-29T09:56:15;29.70;43.10
73438;DHT22;66471;56.532;21.020;2023-07-29T09:58:48;30.10;42.40
73438;DHT22;66471;56.532;21.020;2023-07-29T16:12:24;22.10;71.20
73438;DHT22;66471;56.532;21.020;2023-07-29T16:14:51;21.70;72.70
